createdAt,value
2022-09-11T00:01:33.335Z,8.17
2022-09-11T00:04:00.590Z,9.47
2022-09-11T00:06:30.174Z,8.47
2022-09-11T00:09:00.827Z,8.50
2022-09-11T00:11:31.752Z,8.70
2022-09-11T00:13:59.207Z,8.17
2022-09-11T00:16:37.879Z,11.37
2022-09-11T00:19:08.368Z,7.30
2022-09-11T00:21:36.458Z,9.73
2022-09-11T00:24:04.213Z,9.70
2022-09-11T00:26:31.242Z,10.10
2022-09-11T00:28:58.598Z,12.77
2022-09-11T00:31:28.464Z,7.47
2022-09-11T00:33:56.641Z,11.60
2022-09-11T00:36:29.408Z,6.43
2022-09-11T00:38:57.999Z,10.27
2022-09-11T00:41:36.216Z,10.23
2022-09-11T00:44:28.414Z,10.60
2022-09-11T00:46:59.858Z,7.20
2022-09-11T00:49:34.768Z,10.40
2022-09-11T00:52:05.652Z,12.03
2022-09-11T00:54:37.796Z,9.40
2022-09-11T00:57:08.398Z,8.03
2022-09-11T00:59:36.768Z,9.23
2022-09-11T01:02:05.064Z,9.33
2022-09-11T01:04:33.552Z,8.03
2022-09-11T01:07:01.615Z,8.83
2022-09-11T01:09:30.960Z,8.63
2022-09-11T01:12:15.809Z,9.07
2022-09-11T01:15:03.256Z,10.00
2022-09-11T01:17:54.209Z,8.43
2022-09-11T01:20:59.932Z,10.10
2022-09-11T01:23:46.062Z,12.23
2022-09-11T01:26:43.080Z,8.17
2022-09-11T01:29:26.484Z,11.47
2022-09-11T01:32:11.770Z,11.00
2022-09-11T01:35:03.027Z,10.73
2022-09-11T01:37:59.476Z,11.17
2022-09-11T01:40:36.743Z,10.03
2022-09-11T01:43:09.012Z,9.10
2022-09-11T01:45:39.951Z,7.97
2022-09-11T01:48:09.039Z,8.83
2022-09-11T01:50:40.482Z,8.50
2022-09-11T01:53:12.386Z,8.07
2022-09-11T01:55:46.034Z,8.77
2022-09-11T01:58:24.892Z,10.57
2022-09-11T02:00:57.917Z,7.80
2022-09-11T02:03:31.406Z,8.40
2022-09-11T02:06:05.427Z,11.27
2022-09-11T02:09:13.624Z,11.67
2022-09-11T02:11:43.526Z,9.53
2022-09-11T02:14:17.525Z,10.87
2022-09-11T02:16:56.663Z,8.40
2022-09-11T02:19:29.679Z,7.13
2022-09-11T02:21:59.615Z,10.57
2022-09-11T02:24:27.488Z,10.17
2022-09-11T02:27:07.399Z,9.07
2022-09-11T02:29:35.070Z,9.27
2022-09-11T02:32:03.934Z,9.50
2022-09-11T02:34:34.278Z,11.33
2022-09-11T02:37:03.314Z,11.80
2022-09-11T02:39:40.648Z,10.23
2022-09-11T02:42:34.135Z,8.03
2022-09-11T02:45:08.349Z,13.57
2022-09-11T02:48:07.817Z,12.40
2022-09-11T02:51:01.399Z,15.53
2022-09-11T02:53:47.958Z,15.03
2022-09-11T02:56:21.794Z,14.37
2022-09-11T02:58:58.477Z,17.23
2022-09-11T03:01:28.231Z,12.13
2022-09-11T03:03:55.556Z,13.70
2022-09-11T03:06:28.156Z,15.83
2022-09-11T03:08:55.731Z,12.63
2022-09-11T03:11:23.047Z,14.03
2022-09-11T03:13:50.699Z,13.57
2022-09-11T03:16:17.841Z,13.00
2022-09-11T03:18:45.114Z,13.93
2022-09-11T03:21:12.038Z,15.10
2022-09-11T03:23:39.498Z,10.90
2022-09-11T03:26:07.273Z,11.00
2022-09-11T03:28:34.660Z,13.07
2022-09-11T03:31:08.774Z,19.30
2022-09-11T03:33:37.382Z,14.63
2022-09-11T03:36:04.785Z,13.13
2022-09-11T03:38:33.045Z,13.20
2022-09-11T03:41:00.379Z,10.93
2022-09-11T03:43:27.350Z,11.80
2022-09-11T03:45:54.396Z,11.90
2022-09-11T03:48:21.419Z,12.77
2022-09-11T03:50:48.554Z,13.63
2022-09-11T03:53:16.310Z,12.13
2022-09-11T03:55:46.606Z,10.93
2022-09-11T03:58:14.204Z,12.63
2022-09-11T04:00:47.578Z,16.90
2022-09-11T04:03:16.729Z,12.60
2022-09-11T04:05:56.015Z,11.70
2022-09-11T04:08:23.135Z,12.13
2022-09-11T04:10:59.667Z,12.43
2022-09-11T04:13:28.696Z,12.90
2022-09-11T04:16:03.242Z,14.57
2022-09-11T04:18:35.036Z,13.80
2022-09-11T04:21:13.360Z,12.47
2022-09-11T04:23:41.728Z,12.97
2022-09-11T04:26:18.320Z,13.73
2022-09-11T04:28:48.459Z,11.50
2022-09-11T04:31:17.107Z,13.80
2022-09-11T04:33:45.315Z,11.63
2022-09-11T04:36:18.843Z,14.60
2022-09-11T04:38:47.874Z,15.27
2022-09-11T04:41:16.505Z,12.00
2022-09-11T04:43:44.618Z,15.70
2022-09-11T04:46:15.736Z,13.33
2022-09-11T04:48:48.805Z,17.33
2022-09-11T04:51:29.203Z,14.23
2022-09-11T04:53:58.886Z,10.23
2022-09-11T04:56:34.255Z,15.90
2022-09-11T04:59:05.733Z,19.23
2022-09-11T05:01:35.725Z,13.73
2022-09-11T05:04:03.522Z,16.00
2022-09-11T05:06:32.210Z,16.03
2022-09-11T05:09:05.962Z,17.93
2022-09-11T05:11:35.915Z,15.07
2022-09-11T05:14:03.515Z,17.17
2022-09-11T05:16:34.785Z,14.67
2022-09-11T05:19:04.336Z,14.93
2022-09-11T05:21:33.951Z,14.33
2022-09-11T05:24:02.419Z,18.30
2022-09-11T05:26:33.911Z,12.13
2022-09-11T05:29:05.387Z,14.23
2022-09-11T05:31:33.952Z,15.70
2022-09-11T05:34:03.197Z,16.97
2022-09-11T05:36:34.305Z,13.67
2022-09-11T05:39:03.727Z,14.47
2022-09-11T05:41:33.083Z,20.27
2022-09-11T05:44:00.147Z,15.80
2022-09-11T05:46:27.306Z,16.50
2022-09-11T05:48:59.198Z,17.97
2022-09-11T05:51:27.662Z,15.20
2022-09-11T05:53:58.158Z,14.53
2022-09-11T05:56:28.270Z,17.00
2022-09-11T05:58:59.418Z,13.67
2022-09-11T06:01:34.974Z,15.90
2022-09-11T06:04:12.374Z,15.53
2022-09-11T06:06:41.905Z,14.43
2022-09-11T06:09:08.963Z,20.37
2022-09-11T06:11:36.308Z,16.37
2022-09-11T06:14:03.749Z,14.50
2022-09-11T06:16:31.687Z,14.37
2022-09-11T06:19:05.762Z,14.60
2022-09-11T06:21:33.085Z,16.07
2022-09-11T06:24:07.228Z,13.07
2022-09-11T06:26:35.715Z,13.47
2022-09-11T06:29:03.188Z,14.73
2022-09-11T06:31:31.363Z,15.60
2022-09-11T06:33:58.419Z,17.23
2022-09-11T06:36:27.106Z,15.10
2022-09-11T06:38:57.739Z,20.70
2022-09-11T06:41:27.882Z,12.97
2022-09-11T06:44:03.582Z,12.27
2022-09-11T06:46:31.587Z,13.33
2022-09-11T06:49:00.606Z,14.53
2022-09-11T06:51:29.106Z,12.60
2022-09-11T06:53:59.459Z,14.43
2022-09-11T06:56:32.436Z,13.53
2022-09-11T06:59:01.236Z,12.20
2022-09-11T07:01:29.957Z,15.50
2022-09-11T07:04:02.841Z,16.30
2022-09-11T07:06:33.087Z,16.23
2022-09-11T07:09:03.038Z,13.30
2022-09-11T07:11:43.768Z,17.87
2022-09-11T07:14:11.228Z,14.17
2022-09-11T07:16:41.135Z,11.93
2022-09-11T07:19:11.674Z,13.93
2022-09-11T07:21:39.871Z,14.03
2022-09-11T07:24:07.573Z,15.13
2022-09-11T07:26:38.887Z,15.10
2022-09-11T07:29:19.118Z,15.13
2022-09-11T07:31:47.876Z,12.63
2022-09-11T07:34:16.176Z,11.13
2022-09-11T07:36:44.659Z,13.20
2022-09-11T07:39:12.700Z,14.33
2022-09-11T07:41:50.322Z,13.23
2022-09-11T07:44:23.718Z,12.20
2022-09-11T07:46:51.562Z,13.57
2022-09-11T07:49:18.763Z,14.33
2022-09-11T07:51:46.422Z,11.67
2022-09-11T07:54:17.512Z,13.73
2022-09-11T07:56:44.736Z,16.83
2022-09-11T07:59:12.517Z,13.97
2022-09-11T08:01:43.878Z,12.77
2022-09-11T08:04:14.574Z,14.27
2022-09-11T08:06:42.487Z,14.47
2022-09-11T08:09:16.919Z,13.47
2022-09-11T08:11:49.732Z,12.97
2022-09-11T08:14:18.704Z,15.30
2022-09-11T08:16:48.494Z,10.97
2022-09-11T08:19:19.615Z,11.37
2022-09-11T08:21:52.863Z,10.40
2022-09-11T08:24:21.429Z,11.60
2022-09-11T08:26:51.067Z,14.03
2022-09-11T08:29:19.619Z,11.93
2022-09-11T08:31:47.887Z,13.17
2022-09-11T08:34:16.376Z,9.70
2022-09-11T08:36:45.002Z,11.37
2022-09-11T08:39:12.367Z,10.93
2022-09-11T08:41:54.291Z,13.73
2022-09-11T08:44:47.735Z,10.43
2022-09-11T08:47:27.769Z,13.93
2022-09-11T08:50:15.955Z,10.97
2022-09-11T08:52:44.755Z,16.50
2022-09-11T08:55:17.191Z,11.80
2022-09-11T08:58:04.051Z,10.87
2022-09-11T09:00:57.621Z,12.07
2022-09-11T09:03:30.777Z,11.37
2022-09-11T09:06:21.246Z,12.77
2022-09-11T09:09:18.723Z,10.87
2022-09-11T09:11:58.852Z,10.50
2022-09-11T09:14:48.290Z,10.57
2022-09-11T09:17:23.204Z,8.20
2022-09-11T09:20:13.364Z,12.10
2022-09-11T09:23:19.036Z,10.23
2022-09-11T09:25:48.228Z,11.20
2022-09-11T09:28:27.050Z,12.33
2022-09-11T09:31:04.558Z,11.33
2022-09-11T09:33:35.283Z,12.97
2022-09-11T09:36:24.423Z,11.27
2022-09-11T09:38:53.739Z,12.13
2022-09-11T09:41:51.770Z,12.83
2022-09-11T09:44:40.282Z,11.47
2022-09-11T09:47:12.248Z,10.57
2022-09-11T09:49:39.879Z,9.87
2022-09-11T09:52:17.142Z,9.20
2022-09-11T09:54:55.169Z,9.77
2022-09-11T09:57:26.144Z,8.50
2022-09-11T10:00:07.608Z,8.33
2022-09-11T11:39:00.586Z,8.73
2022-09-11T11:41:44.668Z,10.47
2022-09-11T11:44:33.860Z,8.77
2022-09-11T11:47:04.412Z,7.03
2022-09-11T11:49:41.655Z,8.67
2022-09-11T11:52:34.396Z,10.13
2022-09-11T11:55:20.821Z,10.53
2022-09-11T11:58:18.598Z,8.67
2022-09-11T12:00:56.679Z,6.00
2022-09-11T12:03:52.935Z,5.47
2022-09-11T12:06:20.656Z,6.90
2022-09-11T12:08:48.313Z,5.93
2022-09-11T12:11:22.666Z,5.70
2022-09-11T12:13:49.811Z,5.80
2022-09-11T12:16:31.833Z,6.77
2022-09-11T12:19:07.492Z,7.30
2022-09-11T12:21:40.586Z,7.73
2022-09-11T12:24:07.986Z,8.23
2022-09-11T12:26:34.938Z,6.83
2022-09-11T12:29:14.392Z,6.27
2022-09-11T12:31:50.421Z,8.83
2022-09-11T12:34:43.332Z,8.20
2022-09-11T12:37:27.633Z,7.60
2022-09-11T12:40:27.532Z,10.03
2022-09-11T12:43:14.879Z,7.80
2022-09-11T12:45:42.303Z,7.77
2022-09-11T12:48:13.606Z,7.93
2022-09-11T12:50:49.295Z,8.57
2022-09-11T12:53:23.595Z,7.90
2022-09-11T12:56:06.348Z,8.40
2022-09-11T12:58:43.782Z,7.27
2022-09-11T13:01:11.208Z,8.10
2022-09-11T13:04:14.697Z,7.50
2022-09-11T13:07:02.523Z,9.70
2022-09-11T13:09:33.978Z,8.10
2022-09-11T13:12:24.957Z,8.00
2022-09-11T13:14:58.971Z,8.37
2022-09-11T13:17:30.664Z,7.70
2022-09-11T13:20:22.381Z,6.00
2022-09-11T13:22:56.103Z,6.93
2022-09-11T13:25:28.625Z,7.07
2022-09-11T13:28:00.052Z,7.80
2022-09-11T13:30:27.486Z,7.17
2022-09-11T13:33:09.255Z,7.30
2022-09-11T13:35:40.314Z,6.23
2022-09-11T13:38:30.543Z,7.68
2022-09-11T13:41:13.280Z,6.90
2022-09-11T13:43:57.954Z,5.28
2022-09-11T13:46:31.556Z,6.63
2022-09-11T13:49:11.058Z,6.65
2022-09-11T13:51:43.861Z,5.78
2022-09-11T13:54:38.510Z,6.78
2022-09-11T13:57:15.496Z,8.15
2022-09-11T13:59:57.129Z,5.22
2022-09-11T14:02:54.630Z,4.93
2022-09-11T14:05:27.942Z,4.80
2022-09-11T14:08:10.275Z,6.13
2022-09-11T14:10:43.052Z,7.13
2022-09-11T14:13:23.161Z,6.93
2022-09-11T14:15:56.877Z,6.50
2022-09-11T14:18:42.401Z,5.40
2022-09-11T14:21:24.329Z,6.32
2022-09-11T14:23:54.612Z,5.18
2022-09-11T14:26:32.478Z,6.25
2022-09-11T14:29:07.070Z,5.63
2022-09-11T14:31:37.174Z,6.88
2022-09-11T14:34:25.782Z,5.97
2022-09-11T14:36:55.665Z,8.20
2022-09-11T14:39:40.745Z,5.18
2022-09-11T14:42:16.208Z,7.18
2022-09-11T14:44:43.964Z,6.43
2022-09-11T14:47:23.250Z,5.10
2022-09-11T14:49:55.661Z,5.45
2022-09-11T14:52:25.924Z,6.57
2022-09-11T14:54:53.536Z,5.22
2022-09-11T14:57:24.314Z,6.50
2022-09-11T14:59:52.485Z,5.60
2022-09-11T15:02:25.447Z,5.90
2022-09-11T15:04:54.151Z,8.82
2022-09-11T15:07:23.423Z,5.90
2022-09-11T15:09:51.985Z,7.10
2022-09-11T15:12:19.504Z,5.88
2022-09-11T15:14:57.622Z,4.97
2022-09-11T15:17:25.676Z,5.57
2022-09-11T15:19:53.540Z,6.43
2022-09-11T15:22:21.004Z,5.80
2022-09-11T15:24:48.834Z,7.15
2022-09-11T15:27:16.351Z,6.90
2022-09-11T15:29:43.251Z,5.85
2022-09-11T15:32:10.573Z,7.60
2022-09-11T15:34:39.807Z,6.78
2022-09-11T15:37:06.990Z,7.90
2022-09-11T15:39:34.106Z,5.97
2022-09-11T15:42:04.099Z,5.15
2022-09-11T15:44:31.094Z,7.07
2022-09-11T15:46:59.160Z,6.55
2022-09-11T15:49:29.231Z,7.28
2022-09-11T15:51:58.011Z,6.68
2022-09-11T15:54:25.610Z,7.22
2022-09-11T15:56:53.276Z,5.97
2022-09-11T15:59:20.242Z,6.60
2022-09-11T16:01:47.474Z,6.50
2022-09-11T16:04:19.334Z,4.82
2022-09-11T16:06:48.493Z,6.20
2022-09-11T16:09:22.172Z,5.95
2022-09-11T16:11:50.578Z,7.50
2022-09-11T16:14:19.792Z,5.55
2022-09-11T16:16:47.551Z,6.63
2022-09-11T16:19:15.984Z,5.70
2022-09-11T16:21:43.426Z,4.65
2022-09-11T16:24:11.632Z,6.25
2022-09-11T16:26:38.721Z,5.88
2022-09-11T16:29:11.859Z,6.65
2022-09-11T16:31:39.709Z,7.10
2022-09-11T16:34:07.423Z,6.00
2022-09-11T16:36:42.656Z,7.60
2022-09-11T16:39:13.036Z,6.97
2022-09-11T16:41:40.645Z,7.77
2022-09-11T16:44:10.360Z,6.03
2022-09-11T16:46:37.707Z,7.20
2022-09-11T16:49:06.169Z,4.57
2022-09-11T16:51:34.211Z,6.57
2022-09-11T16:54:02.104Z,6.80
2022-09-11T16:56:29.074Z,6.80
2022-09-11T16:58:56.267Z,8.33
2022-09-11T17:01:26.264Z,8.43
2022-09-11T17:03:55.791Z,9.03
2022-09-11T17:06:28.236Z,6.27
